createdAt,value
2023-01-08T00:08:50.153Z,28.90
2023-01-08T00:18:53.748Z,27.70
2023-01-08T00:28:57.663Z,26.90
2023-01-08T00:39:02.421Z,27.30
2023-01-08T00:49:06.078Z,28.50
2023-01-08T00:59:09.816Z,27.50
2023-01-08T01:09:13.442Z,25.10
2023-01-08T01:19:17.957Z,25.80
2023-01-08T01:29:21.557Z,27.70
2023-01-08T01:39:25.396Z,27.30
2023-01-08T01:49:31.209Z,25.30
2023-01-08T01:59:34.834Z,25.30
2023-01-08T02:09:48.054Z,25.40
2023-01-08T02:20:00.532Z,26.50
2023-01-08T02:30:06.356Z,25.40
2023-01-08T02:40:25.317Z,25.20
2023-01-08T02:50:38.199Z,25.40
2023-01-08T03:00:45.771Z,25.80
2023-01-08T03:10:55.886Z,26.30
2023-01-08T03:21:02.291Z,26.30
2023-01-08T03:31:07.230Z,26.70
2023-01-08T03:41:15.230Z,26.60
2023-01-08T03:51:19.121Z,25.90
2023-01-08T04:01:22.796Z,25.80
2023-01-08T04:11:26.644Z,26.80
2023-01-08T04:21:30.104Z,26.50
2023-01-08T04:31:33.574Z,26.40
2023-01-08T04:41:37.230Z,27.00
2023-01-08T04:51:40.872Z,27.00
2023-01-08T05:01:44.576Z,28.40
2023-01-08T05:11:48.370Z,28.50
2023-01-08T05:21:51.982Z,29.00
2023-01-08T05:31:55.514Z,28.80
2023-01-08T05:42:00.779Z,30.30
2023-01-08T05:52:04.686Z,29.30
2023-01-08T06:02:09.368Z,29.50
2023-01-08T06:12:12.960Z,29.80
2023-01-08T06:22:16.795Z,29.20
2023-01-08T06:32:20.438Z,28.80
2023-01-08T06:42:24.029Z,28.00
2023-01-08T06:52:27.908Z,27.50
2023-01-08T07:02:31.822Z,26.90
2023-01-08T07:12:35.659Z,25.10
2023-01-08T07:22:39.214Z,23.70
2023-01-08T07:32:42.780Z,21.40
2023-01-08T07:42:46.431Z,21.10
2023-01-08T07:52:50.014Z,19.50
2023-01-08T08:02:53.633Z,18.50
2023-01-08T08:12:57.339Z,16.90
2023-01-08T08:23:14.095Z,17.00
2023-01-08T08:33:17.643Z,17.20
2023-01-08T08:43:21.611Z,18.10
2023-01-08T08:54:19.689Z,21.50
2023-01-08T09:04:23.201Z,23.00
2023-01-08T09:14:26.779Z,22.90
2023-01-08T09:24:32.519Z,24.40
2023-01-08T09:34:39.694Z,24.10
2023-01-08T09:44:45.731Z,24.00
2023-01-08T09:54:53.181Z,21.70
2023-01-08T10:05:01.457Z,26.60
2023-01-08T10:15:13.961Z,23.40
2023-01-08T10:25:20.503Z,26.80
2023-01-08T10:35:34.943Z,24.30
2023-01-08T10:45:38.704Z,24.10
2023-01-08T10:55:42.302Z,26.00
2023-01-08T11:05:46.648Z,21.30
2023-01-08T11:16:07.006Z,20.30
2023-01-08T11:26:16.099Z,25.10
2023-01-08T11:36:27.130Z,22.70
2023-01-08T11:47:10.287Z,20.60
2023-01-08T11:57:29.382Z,31.40
2023-01-08T12:07:58.205Z,32.80
2023-01-08T12:18:22.823Z,18.70
2023-01-08T12:28:51.289Z,18.00
2023-01-08T12:39:02.541Z,18.20
2023-01-08T12:49:11.270Z,19.40
2023-01-08T12:59:46.634Z,19.50
2023-01-08T13:10:22.580Z,20.20
2023-01-08T13:20:32.239Z,18.90
2023-01-08T13:30:43.603Z,24.80
2023-01-08T13:40:50.138Z,22.10
2023-01-08T13:50:56.954Z,20.50
2023-01-08T14:01:03.598Z,18.80
2023-01-08T14:11:10.998Z,17.20
2023-01-08T14:21:16.021Z,15.40
2023-01-08T14:31:27.210Z,16.00
2023-01-08T14:41:58.308Z,14.60
2023-01-08T14:52:03.613Z,13.60
2023-01-08T15:02:22.307Z,13.70
2023-01-08T15:12:29.239Z,19.90
2023-01-08T15:22:36.754Z,14.20
2023-01-08T15:32:40.908Z,15.40
2023-01-08T15:43:04.520Z,16.70
2023-01-08T15:53:19.341Z,15.90
2023-01-08T16:03:25.750Z,15.50
2023-01-08T16:13:31.073Z,18.40
2023-01-08T16:23:38.719Z,16.40
2023-01-08T16:33:45.148Z,17.10
2023-01-08T16:43:50.319Z,17.00
2023-01-08T16:53:54.053Z,17.60
2023-01-08T17:04:00.290Z,17.30
2023-01-08T17:14:04.967Z,16.20
2023-01-08T17:24:10.077Z,17.40
2023-01-08T17:34:16.302Z,18.00
2023-01-08T17:44:20.038Z,16.60
2023-01-08T17:54:24.634Z,19.00
2023-01-08T18:04:28.487Z,17.50
2023-01-08T18:14:37.788Z,22.30
2023-01-08T18:24:42.340Z,18.90
2023-01-08T18:34:46.173Z,18.80
2023-01-08T18:44:52.816Z,19.80
2023-01-08T18:54:58.034Z,20.60
2023-01-08T19:05:01.995Z,20.70
2023-01-08T19:15:08.238Z,21.10
2023-01-08T19:25:15.139Z,21.80
2023-01-08T19:35:18.934Z,19.60
2023-01-08T19:45:24.386Z,24.80
2023-01-08T19:55:28.710Z,20.60
2023-01-08T20:05:34.419Z,21.80
2023-01-08T20:15:40.252Z,20.90
2023-01-08T20:25:43.834Z,22.60
2023-01-08T20:35:47.493Z,22.20
2023-01-08T20:45:51.363Z,22.40
2023-01-08T20:56:02.337Z,21.70
2023-01-08T21:06:13.560Z,20.90
2023-01-08T21:16:22.805Z,21.50
2023-01-08T21:26:27.255Z,20.80
2023-01-08T21:36:32.129Z,20.40
2023-01-08T21:46:37.934Z,20.50
2023-01-08T21:56:41.593Z,20.40
2023-01-08T22:06:47.248Z,21.10
2023-01-08T22:16:50.856Z,21.40
2023-01-08T22:26:54.631Z,25.20
2023-01-08T22:37:00.109Z,23.00
2023-01-08T22:47:06.391Z,22.60
2023-01-08T22:57:10.512Z,22.80
2023-01-08T23:07:15.998Z,23.90
2023-01-08T23:17:19.639Z,24.30
2023-01-08T23:27:23.257Z,24.30
2023-01-08T23:37:26.786Z,28.90
2023-01-08T23:47:30.738Z,26.10
2023-01-08T23:57:34.372Z,25.10
